sensor_id;sensor_type;location;lat;lon;timestamp;pressure;altitude;pressure_sealevel;temperature;humidity
44481;BME280;30184;42.018;23.670;2022-12-18T00:00:27;92079.00;;;7.13;100.00
44481;BME280;30184;42.018;23.670;2022-12-18T00:02:56;92084.81;;;7.07;100.00
44481;BME280;30184;42.018;23.670;2022-12-18T00:05:26;92085.63;;;7.01;100.00
44481;BME280;30184;42.018;23.670;2022-12-18T00:07:56;92086.78;;;6.96;100.00
44481;BME280;30184;42.018;23.670;2022-12-18T00:10:26;92077.97;;;6.92;100.00
44481;BME280;30184;42.018;23.670;2022-12-18T00:12:56;92092.63;;;6.88;100.00
44481;BME280;30184;42.018;23.670;2022-12-18T00:15:25;92084.56;;;6.81;100.00
44481;BME280;30184;42.018;23.670;2022-12-18T00:17:54;92093.09;;;6.76;100.00
44481;BME280;30184;42.018;23.670;2022-12-18T00:20:23;92074.25;;;6.61;100.00
44481;BME280;30184;42.018;23.670;2022-12-18T00:22:53;92093.91;;;6.65;100.00
44481;BME280;30184;42.018;23.670;2022-12-18T00:25:24;92094.28;;;6.60;100.00
44481;BME280;30184;42.018;23.670;2022-12-18T00:27:53;92093.94;;;6.55;100.00
44481;BME280;30184;42.018;23.670;2022-12-18T00:30:22;92095.84;;;6.51;100.00
44481;BME280;30184;42.018;23.670;2022-12-18T00:32:51;92088.59;;;6.37;100.00
44481;BME280;30184;42.018;23.670;2022-12-18T00:35:21;92103.22;;;6.32;100.00
44481;BME280;30184;42.018;23.670;2022-12-18T00:37:50;92094.38;;;6.39;100.00
44481;BME280;30184;42.018;23.670;2022-12-18T00:40:19;92099.78;;;6.35;100.00
44481;BME280;30184;42.018;23.670;2022-12-18T00:42:50;92097.84;;;6.32;100.00
44481;BME280;30184;42.018;23.670;2022-12-18T00:45:24;92106.72;;;6.29;100.00
44481;BME280;30184;42.018;23.670;2022-12-18T00:47:55;92101.72;;;6.24;100.00
44481;BME280;30184;42.018;23.670;2022-12-18T00:50:25;92077.50;;;6.03;100.00
44481;BME280;30184;42.018;23.670;2022-12-18T00:52:54;92111.78;;;6.10;100.00
44481;BME280;30184;42.018;23.670;2022-12-18T00:55:24;92106.34;;;6.13;100.00
44481;BME280;30184;42.018;23.670;2022-12-18T00:57:56;92107.16;;;6.10;100.00
44481;BME280;30184;42.018;23.670;2022-12-18T01:00:25;92044.84;;;5.66;100.00
44481;BME280;30184;42.018;23.670;2022-12-18T01:02:54;92102.53;;;6.04;100.00
44481;BME280;30184;42.018;23.670;2022-12-18T01:05:24;92089.88;;;5.90;100.00
44481;BME280;30184;42.018;23.670;2022-12-18T01:07:55;92110.25;;;5.98;100.00
44481;BME280;30184;42.018;23.670;2022-12-18T01:10:24;92069.47;;;5.60;100.00
44481;BME280;30184;42.018;23.670;2022-12-18T01:12:58;92108.69;;;5.72;100.00
44481;BME280;30184;42.018;23.670;2022-12-18T01:15:28;92116.41;;;5.88;100.00
44481;BME280;30184;42.018;23.670;2022-12-18T01:17:57;92109.84;;;5.85;100.00
44481;BME280;30184;42.018;23.670;2022-12-18T01:20:27;92110.25;;;5.84;100.00
44481;BME280;30184;42.018;23.670;2022-12-18T01:22:56;92112.53;;;5.78;100.00
44481;BME280;30184;42.018;23.670;2022-12-18T01:25:27;92114.84;;;5.76;100.00
44481;BME280;30184;42.018;23.670;2022-12-18T01:27:56;92127.16;;;5.74;100.00
44481;BME280;30184;42.018;23.670;2022-12-18T01:30:26;92128.31;;;5.73;100.00
44481;BME280;30184;42.018;23.670;2022-12-18T01:32:55;92123.31;;;5.71;100.00
44481;BME280;30184;42.018;23.670;2022-12-18T01:35:25;92124.47;;;5.70;100.00
44481;BME280;30184;42.018;23.670;2022-12-18T01:37:54;92132.94;;;5.69;100.00
44481;BME280;30184;42.018;23.670;2022-12-18T01:40:23;92138.69;;;5.67;100.00
44481;BME280;30184;42.018;23.670;2022-12-18T01:42:53;92052.53;;;5.07;100.00
44481;BME280;30184;42.018;23.670;2022-12-18T01:45:27;92144.88;;;5.64;100.00
44481;BME280;30184;42.018;23.670;2022-12-18T01:47:58;92151.03;;;5.65;100.00
44481;BME280;30184;42.018;23.670;2022-12-18T01:50:31;92143.31;;;5.56;100.00
44481;BME280;30184;42.018;23.670;2022-12-18T01:53:05;92131.75;;;5.48;100.00
44481;BME280;30184;42.018;23.670;2022-12-18T01:55:38;92150.22;;;5.60;100.00
44481;BME280;30184;42.018;23.670;2022-12-18T01:58:09;92148.69;;;5.59;100.00
44481;BME280;30184;42.018;23.670;2022-12-18T02:00:40;92144.06;;;5.60;100.00
44481;BME280;30184;42.018;23.670;2022-12-18T02:03:09;92157.91;;;5.37;100.00
44481;BME280;30184;42.018;23.670;2022-12-18T02:05:44;92139.44;;;5.57;100.00
44481;BME280;30184;42.018;23.670;2022-12-18T02:08:20;91941.38;;;4.10;100.00
44481;BME280;30184;42.018;23.670;2022-12-18T02:10:57;92152.94;;;5.53;100.00
44481;BME280;30184;42.018;23.670;2022-12-18T02:13:38;92170.59;;;5.44;100.00
44481;BME280;30184;42.018;23.670;2022-12-18T02:16:18;92127.91;;;5.32;100.00
44481;BME280;30184;42.018;23.670;2022-12-18T02:18:53;92163.69;;;5.46;100.00
44481;BME280;30184;42.018;23.670;2022-12-18T02:21:30;92154.81;;;5.42;100.00
44481;BME280;30184;42.018;23.670;2022-12-18T02:24:17;92169.41;;;5.38;100.00
44481;BME280;30184;42.018;23.670;2022-12-18T02:26:50;92145.56;;;5.29;100.00
44481;BME280;30184;42.018;23.670;2022-12-18T02:29:24;92158.28;;;5.32;100.00
44481;BME280;30184;42.018;23.670;2022-12-18T02:32:02;92054.00;;;4.65;100.00
44481;BME280;30184;42.018;23.670;2022-12-18T02:34:34;92072.84;;;4.72;100.00
44481;BME280;30184;42.018;23.670;2022-12-18T02:37:11;92154.81;;;5.24;100.00
44481;BME280;30184;42.018;23.670;2022-12-18T02:39:44;92156.69;;;5.20;100.00
44481;BME280;30184;42.018;23.670;2022-12-18T02:42:17;92154.75;;;5.10;100.00
44481;BME280;30184;42.018;23.670;2022-12-18T02:44:49;92151.72;;;5.15;100.00
44481;BME280;30184;42.018;23.670;2022-12-18T02:47:24;92142.84;;;5.08;100.00
44481;BME280;30184;42.018;23.670;2022-12-18T02:50:02;92106.66;;;4.80;100.00
44481;BME280;30184;42.018;23.670;2022-12-18T02:52:39;92157.44;;;5.07;100.00
44481;BME280;30184;42.018;23.670;2022-12-18T02:55:22;92157.06;;;5.05;100.00
44481;BME280;30184;42.018;23.670;2022-12-18T02:58:04;92139.69;;;4.77;100.00
44481;BME280;30184;42.018;23.670;2022-12-18T03:00:40;92158.97;;;4.97;100.00
44481;BME280;30184;42.018;23.670;2022-12-18T03:03:15;92054.25;;;4.25;100.00
44481;BME280;30184;42.018;23.670;2022-12-18T03:05:50;92163.91;;;4.92;100.00
44481;BME280;30184;42.018;23.670;2022-12-18T03:08:23;92170.06;;;4.88;100.00
44481;BME280;30184;42.018;23.670;2022-12-18T03:10:57;92180.44;;;4.86;100.00
44481;BME280;30184;42.018;23.670;2022-12-18T03:13:33;92167.34;;;4.85;100.00
44481;BME280;30184;42.018;23.670;2022-12-18T03:16:06;92176.94;;;4.82;100.00
44481;BME280;30184;42.018;23.670;2022-12-18T03:18:40;92170.44;;;4.80;100.00
44481;BME280;30184;42.018;23.670;2022-12-18T03:21:14;92145.75;;;4.57;100.00
44481;BME280;30184;42.018;23.670;2022-12-18T03:23:49;92185.38;;;4.77;100.00
44481;BME280;30184;42.018;23.670;2022-12-18T03:26:25;92093.59;;;3.89;100.00
44481;BME280;30184;42.018;23.670;2022-12-18T03:29:02;92187.69;;;4.75;100.00
44481;BME280;30184;42.018;23.670;2022-12-18T03:31:34;92150.31;;;4.49;100.00
44481;BME280;30184;42.018;23.670;2022-12-18T03:34:09;92064.38;;;3.80;100.00
44481;BME280;30184;42.018;23.670;2022-12-18T03:36:45;92189.56;;;4.68;100.00
44481;BME280;30184;42.018;23.670;2022-12-18T03:39:15;92188.84;;;4.78;100.00
44481;BME280;30184;42.018;23.670;2022-12-18T03:41:55;92203.06;;;4.78;100.00
44481;BME280;30184;42.018;23.670;2022-12-18T03:44:40;92200.75;;;4.77;100.00
44481;BME280;30184;42.018;23.670;2022-12-18T03:47:14;92202.28;;;4.78;100.00
44481;BME280;30184;42.018;23.670;2022-12-18T03:49:48;92212.28;;;4.77;100.00
44481;BME280;30184;42.018;23.670;2022-12-18T03:52:26;92212.28;;;4.77;100.00
44481;BME280;30184;42.018;23.670;2022-12-18T03:54:58;92209.97;;;4.76;100.00
44481;BME280;30184;42.018;23.670;2022-12-18T03:57:30;92197.19;;;4.55;100.00
44481;BME280;30184;42.018;23.670;2022-12-18T04:00:05;92189.13;;;4.59;100.00
44481;BME280;30184;42.018;23.670;2022-12-18T04:02:53;92216.09;;;4.69;100.00
44481;BME280;30184;42.018;23.670;2022-12-18T04:05:32;92214.53;;;4.68;100.00
44481;BME280;30184;42.018;23.670;2022-12-18T04:08:03;92226.00;;;4.58;100.00
44481;BME280;30184;42.018;23.670;2022-12-18T04:10:36;92216.06;;;4.62;100.00
44481;BME280;30184;42.018;23.670;2022-12-18T04:13:05;92182.88;;;4.33;100.00
44481;BME280;30184;42.018;23.670;2022-12-18T04:15:37;92222.56;;;4.61;100.00
44481;BME280;30184;42.018;23.670;2022-12-18T04:18:11;92223.69;;;4.57;100.00
44481;BME280;30184;42.018;23.670;2022-12-18T04:20:42;92236.75;;;4.58;100.00
44481;BME280;30184;42.018;23.670;2022-12-18T04:23:12;92231.75;;;4.57;100.00
44481;BME280;30184;42.018;23.670;2022-12-18T04:25:41;92243.63;;;4.56;100.00
44481;BME280;30184;42.018;23.670;2022-12-18T04:28:17;92248.63;;;4.54;100.00
44481;BME280;30184;42.018;23.670;2022-12-18T04:30:48;92249.78;;;4.53;100.00
44481;BME280;30184;42.018;23.670;2022-12-18T04:33:20;92200.81;;;4.19;100.00
44481;BME280;30184;42.018;23.670;2022-12-18T04:35:49;92250.53;;;4.49;100.00
44481;BME280;30184;42.018;23.670;2022-12-18T04:38:18;92249.69;;;4.38;100.00
44481;BME280;30184;42.018;23.670;2022-12-18T04:40:52;92253.94;;;4.46;100.00
44481;BME280;30184;42.018;23.670;2022-12-18T04:43:26;92244.28;;;4.35;100.00
44481;BME280;30184;42.018;23.670;2022-12-18T04:46:03;92259.69;;;4.45;100.00
44481;BME280;30184;42.018;23.670;2022-12-18T04:48:32;92262.78;;;4.43;100.00
44481;BME280;30184;42.018;23.670;2022-12-18T04:51:02;92259.28;;;4.39;100.00
44481;BME280;30184;42.018;23.670;2022-12-18T04:53:31;92266.16;;;4.37;100.00
44481;BME280;30184;42.018;23.670;2022-12-18T04:56:05;92272.63;;;4.25;100.00
44481;BME280;30184;42.018;23.670;2022-12-18T04:58:35;92280.69;;;4.29;100.00
44481;BME280;30184;42.018;23.670;2022-12-18T05:01:05;92264.47;;;4.15;100.00
44481;BME280;30184;42.018;23.670;2022-12-18T05:03:35;92281.88;;;4.31;100.00
44481;BME280;30184;42.018;23.670;2022-12-18T05:06:06;92291.34;;;4.15;100.00
44481;BME280;30184;42.018;23.670;2022-12-18T05:08:35;92278.78;;;4.29;100.00
44481;BME280;30184;42.018;23.670;2022-12-18T05:11:07;92282.63;;;4.28;100.00
44481;BME280;30184;42.018;23.670;2022-12-18T05:13:37;92281.84;;;4.28;100.00
44481;BME280;30184;42.018;23.670;2022-12-18T05:16:09;92270.63;;;4.15;100.00
44481;BME280;30184;42.018;23.670;2022-12-18T05:18:38;92287.97;;;4.25;100.00
44481;BME280;30184;42.018;23.670;2022-12-18T05:21:07;92282.94;;;4.20;100.00
44481;BME280;30184;42.018;23.670;2022-12-18T05:23:37;92287.91;;;4.18;100.00
44481;BME280;30184;42.018;23.670;2022-12-18T05:26:06;92304.00;;;4.14;100.00
44481;BME280;30184;42.018;23.670;2022-12-18T05:28:36;92220.38;;;3.68;100.00
44481;BME280;30184;42.018;23.670;2022-12-18T05:31:04;92290.53;;;4.10;100.00
44481;BME280;30184;42.018;23.670;2022-12-18T05:33:35;92280.00;;;3.91;100.00
44481;BME280;30184;42.018;23.670;2022-12-18T05:36:06;92263.13;;;3.91;100.00
44481;BME280;30184;42.018;23.670;2022-12-18T05:38:38;92280.13;;;4.05;100.00
44481;BME280;30184;42.018;23.670;2022-12-18T05:41:07;92279.28;;;3.94;100.00
44481;BME280;30184;42.018;23.670;2022-12-18T05:43:38;92296.56;;;3.97;100.00
44481;BME280;30184;42.018;23.670;2022-12-18T05:46:11;92297.34;;;3.97;100.00
44481;BME280;30184;42.018;23.670;2022-12-18T05:48:43;92290.81;;;3.98;100.00
44481;BME280;30184;42.018;23.670;2022-12-18T05:51:14;92299.63;;;3.99;100.00
44481;BME280;30184;42.018;23.670;2022-12-18T05:53:44;92291.56;;;3.95;100.00
44481;BME280;30184;42.018;23.670;2022-12-18T05:56:15;92301.88;;;3.93;100.00
44481;BME280;30184;42.018;23.670;2022-12-18T05:58:45;92294.59;;;3.94;100.00
44481;BME280;30184;42.018;23.670;2022-12-18T06:01:15;92332.19;;;3.94;100.00
44481;BME280;30184;42.018;23.670;2022-12-18T06:03:46;92286.84;;;3.85;100.00
44481;BME280;30184;42.018;23.670;2022-12-18T06:06:17;92294.59;;;3.94;100.00
44481;BME280;30184;42.018;23.670;2022-12-18T06:08:46;92279.81;;;3.70;100.00
44481;BME280;30184;42.018;23.670;2022-12-18T06:11:17;92335.66;;;3.94;100.00
44481;BME280;30184;42.018;23.670;2022-12-18T06:13:49;92311.91;;;3.96;100.00
44481;BME280;30184;42.018;23.670;2022-12-18T06:16:21;92254.44;;;3.60;100.00
44481;BME280;30184;42.018;23.670;2022-12-18T06:18:51;92322.28;;;3.98;100.00
44481;BME280;30184;42.018;23.670;2022-12-18T06:21:20;92323.84;;;4.02;100.00
44481;BME280;30184;42.018;23.670;2022-12-18T06:23:49;92277.53;;;3.72;100.00
44481;BME280;30184;42.018;23.670;2022-12-18T06:26:18;92303.38;;;3.87;100.00
44481;BME280;30184;42.018;23.670;2022-12-18T06:28:51;92339.28;;;4.12;100.00
44481;BME280;30184;42.018;23.670;2022-12-18T06:31:20;92312.22;;;3.91;100.00
44481;BME280;30184;42.018;23.670;2022-12-18T06:33:50;92351.22;;;4.19;100.00
44481;BME280;30184;42.018;23.670;2022-12-18T06:36:19;92354.72;;;4.23;100.00
44481;BME280;30184;42.018;23.670;2022-12-18T06:38:49;92344.72;;;4.20;100.00
44481;BME280;30184;42.018;23.670;2022-12-18T06:41:19;92357.88;;;4.32;100.00
44481;BME280;30184;42.018;23.670;2022-12-18T06:43:49;92383.94;;;4.28;100.00
44481;BME280;30184;42.018;23.670;2022-12-18T06:46:18;92353.75;;;4.45;100.00
44481;BME280;30184;42.018;23.670;2022-12-18T06:48:49;92288.97;;;4.09;100.00
44481;BME280;30184;42.018;23.670;2022-12-18T06:51:21;92347.25;;;4.46;100.00
44481;BME280;30184;42.018;23.670;2022-12-18T06:53:50;92360.47;;;4.69;100.00
44481;BME280;30184;42.018;23.670;2022-12-18T06:56:19;92371.28;;;4.76;100.00
44481;BME280;30184;42.018;23.670;2022-12-18T06:58:48;92364.81;;;4.84;100.00
44481;BME280;30184;42.018;23.670;2022-12-18T07:01:18;92369.47;;;4.91;100.00
44481;BME280;30184;42.018;23.670;2022-12-18T07:03:51;92362.63;;;5.00;100.00
44481;BME280;30184;42.018;23.670;2022-12-18T07:06:24;92372.28;;;5.12;100.00
44481;BME280;30184;42.018;23.670;2022-12-18T07:08:53;92385.03;;;5.22;100.00
44481;BME280;30184;42.018;23.670;2022-12-18T07:11:23;92384.31;;;5.32;100.00
44481;BME280;30184;42.018;23.670;2022-12-18T07:13:53;92380.91;;;5.42;100.00
44481;BME280;30184;42.018;23.670;2022-12-18T07:16:22;92373.97;;;5.38;100.00
44481;BME280;30184;42.018;23.670;2022-12-18T07:18:52;92384.47;;;5.60;100.00
44481;BME280;30184;42.018;23.670;2022-12-18T07:21:24;92387.97;;;5.68;100.00
44481;BME280;30184;42.018;23.670;2022-12-18T07:23:53;92393.38;;;5.72;100.00
44481;BME280;30184;42.018;23.670;2022-12-18T07:26:23;92393.00;;;5.80;100.00
44481;BME280;30184;42.018;23.670;2022-12-18T07:28:55;92451.19;;;5.88;100.00
44481;BME280;30184;42.018;23.670;2022-12-18T07:31:25;92389.25;;;5.99;100.00
44481;BME280;30184;42.018;23.670;2022-12-18T07:33:54;92393.91;;;6.02;100.00
44481;BME280;30184;42.018;23.670;2022-12-18T07:36:25;92375.03;;;6.06;100.00
44481;BME280;30184;42.018;23.670;2022-12-18T07:38:54;92384.34;;;6.29;100.00
44481;BME280;30184;42.018;23.670;2022-12-18T07:41:23;92284.88;;;5.68;100.00
44481;BME280;30184;42.018;23.670;2022-12-18T07:43:52;92380.13;;;6.53;100.00
44481;BME280;30184;42.018;23.670;2022-12-18T07:46:22;92381.69;;;6.65;100.00
44481;BME280;30184;42.018;23.670;2022-12-18T07:48:51;92389.78;;;6.83;100.00
44481;BME280;30184;42.018;23.670;2022-12-18T07:51:20;92389.00;;;7.00;100.00
44481;BME280;30184;42.018;23.670;2022-12-18T07:53:51;92395.16;;;7.18;100.00
44481;BME280;30184;42.018;23.670;2022-12-18T07:56:20;92367.41;;;7.07;100.00
44481;BME280;30184;42.018;23.670;2022-12-18T07:58:54;92398.22;;;7.38;100.00
44481;BME280;30184;42.018;23.670;2022-12-18T08:01:23;92403.59;;;7.45;100.00
44481;BME280;30184;42.018;23.670;2022-12-18T08:03:52;92398.56;;;7.58;100.00
44481;BME280;30184;42.018;23.670;2022-12-18T08:06:28;92403.53;;;7.70;100.00
44481;BME280;30184;42.018;23.670;2022-12-18T08:09:09;92402.34;;;7.81;100.00
44481;BME280;30184;42.018;23.670;2022-12-18T08:11:39;92363.41;;;7.61;99.86
44481;BME280;30184;42.018;23.670;2022-12-18T08:14:08;92380.75;;;7.71;98.98
44481;BME280;30184;42.018;23.670;2022-12-18T08:16:37;92397.34;;;7.76;97.97
44481;BME280;30184;42.018;23.670;2022-12-18T08:19:06;92378.84;;;7.64;98.42
44481;BME280;30184;42.018;23.670;2022-12-18T08:21:37;92399.59;;;7.92;98.86
44481;BME280;30184;42.018;23.670;2022-12-18T08:24:09;92361.84;;;7.78;99.09
44481;BME280;30184;42.018;23.670;2022-12-18T08:26:39;92414.97;;;8.09;98.72
44481;BME280;30184;42.018;23.670;2022-12-18T08:29:09;92398.75;;;8.13;98.29
44481;BME280;30184;42.018;23.670;2022-12-18T08:31:38;92403.00;;;8.14;98.32
44481;BME280;30184;42.018;23.670;2022-12-18T08:34:08;92407.16;;;8.25;98.22
44481;BME280;30184;42.018;23.670;2022-12-18T08:36:37;92411.00;;;8.39;98.42
44481;BME280;30184;42.018;23.670;2022-12-18T08:39:06;92406.69;;;8.48;98.25
44481;BME280;30184;42.018;23.670;2022-12-18T08:41:36;92406.63;;;8.59;98.03
44481;BME280;30184;42.018;23.670;2022-12-18T08:44:07;92395.00;;;8.66;97.82
44481;BME280;30184;42.018;23.670;2022-12-18T08:46:55;92401.44;;;8.86;97.24
44481;BME280;30184;42.018;23.670;2022-12-18T08:49:24;92399.03;;;8.95;96.71
44481;BME280;30184;42.018;23.670;2022-12-18T08:51:54;92408.25;;;9.05;96.65
44481;BME280;30184;42.018;23.670;2022-12-18T08:54:25;92380.47;;;8.97;96.24
44481;BME280;30184;42.018;23.670;2022-12-18T08:56:56;92403.06;;;9.24;96.15
44481;BME280;30184;42.018;23.670;2022-12-18T08:59:25;92404.94;;;9.27;95.65
44481;BME280;30184;42.018;23.670;2022-12-18T09:01:55;92396.44;;;9.29;95.03
44481;BME280;30184;42.018;23.670;2022-12-18T09:04:25;92401.44;;;9.34;93.89
44481;BME280;30184;42.018;23.670;2022-12-18T09:06:54;92391.84;;;9.26;93.84
44481;BME280;30184;42.018;23.670;2022-12-18T09:09:23;92403.28;;;9.41;93.69
44481;BME280;30184;42.018;23.670;2022-12-18T09:11:52;92402.91;;;9.42;93.52
44481;BME280;30184;42.018;23.670;2022-12-18T09:14:22;92400.19;;;9.42;93.19
44481;BME280;30184;42.018;23.670;2022-12-18T09:16:52;92402.50;;;9.44;93.07
44481;BME280;30184;42.018;23.670;2022-12-18T09:19:21;92398.16;;;9.50;92.79
44481;BME280;30184;42.018;23.670;2022-12-18T09:21:50;92402.81;;;9.49;93.00
44481;BME280;30184;42.018;23.670;2022-12-18T09:24:19;92396.50;;;9.63;92.51
44481;BME280;30184;42.018;23.670;2022-12-18T09:26:48;92353.84;;;9.29;92.56
44481;BME280;30184;42.018;23.670;2022-12-18T09:29:19;92392.00;;;9.83;92.91
44481;BME280;30184;42.018;23.670;2022-12-18T09:31:49;92324.72;;;9.44;91.92
44481;BME280;30184;42.018;23.670;2022-12-18T09:34:18;92346.97;;;9.62;91.67
44481;BME280;30184;42.018;23.670;2022-12-18T09:36:50;92392.63;;;9.98;90.91
44481;BME280;30184;42.018;23.670;2022-12-18T09:39:19;92393.41;;;9.98;90.01
44481;BME280;30184;42.018;23.670;2022-12-18T09:41:51;92352.59;;;9.75;90.52
44481;BME280;30184;42.018;23.670;2022-12-18T09:44:27;92390.97;;;10.07;90.75
44481;BME280;30184;42.018;23.670;2022-12-18T09:47:08;92365.47;;;10.01;90.50
44481;BME280;30184;42.018;23.670;2022-12-18T09:49:41;92382.25;;;10.27;90.08
44481;BME280;30184;42.018;23.670;2022-12-18T09:52:19;92380.50;;;10.40;88.89
44481;BME280;30184;42.018;23.670;2022-12-18T09:54:54;92366.66;;;10.31;87.99
44481;BME280;30184;42.018;23.670;2022-12-18T09:57:24;92389.69;;;10.50;88.38
44481;BME280;30184;42.018;23.670;2022-12-18T09:59:56;92401.16;;;10.61;88.24
44481;BME280;30184;42.018;23.670;2022-12-18T10:02:30;92381.69;;;10.66;87.81
44481;BME280;30184;42.018;23.670;2022-12-18T10:05:04;92373.06;;;10.74;88.07
44481;BME280;30184;42.018;23.670;2022-12-18T10:07:48;92389.66;;;10.80;87.36
44481;BME280;30184;42.018;23.670;2022-12-18T10:10:26;92364.03;;;10.81;86.63
44481;BME280;30184;42.018;23.670;2022-12-18T10:13:04;92357.34;;;10.85;86.04
44481;BME280;30184;42.018;23.670;2022-12-18T10:15:39;92370.72;;;11.00;85.98
44481;BME280;30184;42.018;23.670;2022-12-18T10:18:25;92348.88;;;10.83;85.40
44481;BME280;30184;42.018;23.670;2022-12-18T10:21:03;92391.72;;;10.96;86.22
44481;BME280;30184;42.018;23.670;2022-12-18T10:23:42;92394.28;;;11.06;86.29
44481;BME280;30184;42.018;23.670;2022-12-18T10:26:15;92374.13;;;11.04;85.77
44481;BME280;30184;42.018;23.670;2022-12-18T10:28:44;92382.00;;;10.98;86.29
44481;BME280;30184;42.018;23.670;2022-12-18T10:31:16;92351.09;;;10.89;86.67
44481;BME280;30184;42.018;23.670;2022-12-18T10:33:46;92375.28;;;11.06;86.82
44481;BME280;30184;42.018;23.670;2022-12-18T10:36:16;92178.84;;;9.69;86.56
44481;BME280;30184;42.018;23.670;2022-12-18T10:38:45;92355.38;;;10.90;87.11
44481;BME280;30184;42.018;23.670;2022-12-18T10:41:25;92370.16;;;11.12;86.95
44481;BME280;30184;42.018;23.670;2022-12-18T10:44:14;92370.84;;;11.16;86.42
44481;BME280;30184;42.018;23.670;2022-12-18T10:46:45;92358.22;;;11.06;85.92
44481;BME280;30184;42.018;23.670;2022-12-18T10:49:27;92353.84;;;11.12;86.80
44481;BME280;30184;42.018;23.670;2022-12-18T10:52:14;92368.41;;;11.21;86.30
44481;BME280;30184;42.018;23.670;2022-12-18T10:54:48;92366.19;;;11.16;86.01
44481;BME280;30184;42.018;23.670;2022-12-18T10:57:31;92363.47;;;11.16;86.04
44481;BME280;30184;42.018;23.670;2022-12-18T11:00:20;92351.19;;;11.08;86.38
44481;BME280;30184;42.018;23.670;2022-12-18T11:02:50;92377.47;;;11.15;86.85
44481;BME280;30184;42.018;23.670;2022-12-18T11:05:27;92327.28;;;11.00;86.94
44481;BME280;30184;42.018;23.670;2022-12-18T11:07:58;92361.16;;;11.15;87.10
44481;BME280;30184;42.018;23.670;2022-12-18T11:10:31;92363.47;;;11.16;87.40
44481;BME280;30184;42.018;23.670;2022-12-18T11:13:17;92356.66;;;11.05;87.37
44481;BME280;30184;42.018;23.670;2022-12-18T11:15:48;92362.47;;;11.07;87.60
44481;BME280;30184;42.018;23.670;2022-12-18T11:18:20;92336.88;;;10.81;88.10
44481;BME280;30184;42.018;23.670;2022-12-18T11:20:54;92370.72;;;11.00;87.96
44481;BME280;30184;42.018;23.670;2022-12-18T11:23:26;92369.19;;;10.99;88.69
44481;BME280;30184;42.018;23.670;2022-12-18T11:25:58;92364.13;;;11.01;88.74
44481;BME280;30184;42.018;23.670;2022-12-18T11:28:36;92370.94;;;10.85;88.61
44481;BME280;30184;42.018;23.670;2022-12-18T11:34:01;92361.03;;;10.99;88.62
44481;BME280;30184;42.018;23.670;2022-12-18T11:36:54;92356.38;;;10.99;88.34
44481;BME280;30184;42.018;23.670;2022-12-18T11:39:30;92363.63;;;11.06;88.30
44481;BME280;30184;42.018;23.670;2022-12-18T11:42:05;92355.56;;;11.02;88.18
44481;BME280;30184;42.018;23.670;2022-12-18T11:44:44;92368.00;;;11.00;88.26
44481;BME280;30184;42.018;23.670;2022-12-18T11:47:19;92360.31;;;10.95;88.82
44481;BME280;30184;42.018;23.670;2022-12-18T11:49:51;92358.50;;;10.88;89.84
44481;BME280;30184;42.018;23.670;2022-12-18T11:52:24;92359.75;;;10.83;89.72
44481;BME280;30184;42.018;23.670;2022-12-18T11:54:58;92369.34;;;10.88;90.06
44481;BME280;30184;42.018;23.670;2022-12-18T11:57:34;92362.34;;;10.91;89.73
44481;BME280;30184;42.018;23.670;2022-12-18T12:00:12;92368.13;;;10.93;89.21
44481;BME280;30184;42.018;23.670;2022-12-18T12:03:21;92356.13;;;10.90;89.72
44481;BME280;30184;42.018;23.670;2022-12-18T12:06:02;92172.97;;;9.74;89.84
44481;BME280;30184;42.018;23.670;2022-12-18T12:08:48;92330.31;;;10.78;89.50
44481;BME280;30184;42.018;23.670;2022-12-18T12:11:26;92353.63;;;11.03;89.59
44481;BME280;30184;42.018;23.670;2022-12-18T12:14:08;92360.91;;;11.06;89.69
44481;BME280;30184;42.018;23.670;2022-12-18T12:16:48;92356.22;;;11.10;89.60
44481;BME280;30184;42.018;23.670;2022-12-18T12:19:29;92377.22;;;11.06;89.38
44481;BME280;30184;42.018;23.670;2022-12-18T12:22:07;92356.44;;;11.19;89.42
44481;BME280;30184;42.018;23.670;2022-12-18T12:24:52;92362.66;;;11.19;89.08
44481;BME280;30184;42.018;23.670;2022-12-18T12:27:34;92341.09;;;11.09;88.96
44481;BME280;30184;42.018;23.670;2022-12-18T12:30:09;92356.44;;;11.19;89.01
44481;BME280;30184;42.018;23.670;2022-12-18T12:32:49;92328.41;;;11.02;88.81
44481;BME280;30184;42.018;23.670;2022-12-18T12:35:31;92352.59;;;11.16;88.57
44481;BME280;30184;42.018;23.670;2022-12-18T12:38:09;92358.81;;;11.17;88.39
44481;BME280;30184;42.018;23.670;2022-12-18T12:40:44;92370.09;;;11.15;88.88
44481;BME280;30184;42.018;23.670;2022-12-18T12:43:24;92347.69;;;11.08;89.12
44481;BME280;30184;42.018;23.670;2022-12-18T12:45:55;92133.28;;;9.61;89.00
44481;BME280;30184;42.018;23.670;2022-12-18T12:48:33;92363.63;;;11.06;89.08
44481;BME280;30184;42.018;23.670;2022-12-18T12:51:15;92348.19;;;11.03;89.14
44481;BME280;30184;42.018;23.670;2022-12-18T12:53:46;92359.75;;;11.07;89.05
44481;BME280;30184;42.018;23.670;2022-12-18T12:56:18;92344.47;;;10.93;89.33
44481;BME280;30184;42.018;23.670;2022-12-18T12:58:58;92357.06;;;11.03;89.51
44481;BME280;30184;42.018;23.670;2022-12-18T13:01:36;92368.38;;;11.02;89.57
44481;BME280;30184;42.018;23.670;2022-12-18T13:04:18;92366.34;;;11.06;89.92
44481;BME280;30184;42.018;23.670;2022-12-18T13:06:55;92334.06;;;10.88;89.81
44481;BME280;30184;42.018;23.670;2022-12-18T13:09:30;92376.44;;;11.05;90.08
44481;BME280;30184;42.018;23.670;2022-12-18T13:12:04;92373.31;;;11.07;90.29
44481;BME280;30184;42.018;23.670;2022-12-18T13:14:50;92359.66;;;10.87;90.45
44481;BME280;30184;42.018;23.670;2022-12-18T13:17:27;92365.22;;;11.03;90.76
44481;BME280;30184;42.018;23.670;2022-12-18T13:20:10;92353.81;;;10.89;91.27
44481;BME280;30184;42.018;23.670;2022-12-18T13:22:42;92353.19;;;10.81;91.38